Time;durP1;ratioP1;P1;durP2;ratioP2;P2;SDS_P1;SDS_P2;PMS_P1;PMS_P2;Temp;Humidity;BMP_temperature;BMP_pressure;BME280_temperature;BME280_humidity;BME280_pressure;Samples;Min_cycle;Max_cycle;Signal;HPM_P1;HPM_P2
2023/08/03 00:26:31;;;;;;;;;;;;;;;19.89;57.01;98314.09;1087832;47;19950;-85
2023/08/03 02:05:13;;;;;;;;;;;;;;;;;;;;;
2023/08/03 02:06:20;;;;;;;;;;;;;;;20.02;52.07;98331.94;1088079;47;19949;-85
2023/08/03 02:07:38;;;;;;;;;;;;;;;19.94;51.96;98343.16;1088121;47;19938;-85
2023/08/03 02:08:39;;;;;;;;;;;;;;;19.91;52.50;98349.91;1087928;47;19994;-85
2023/08/03 02:09:43;;;;;;;;;;;;;;;19.90;52.50;98339.34;1088323;54;19943;-85
2023/08/03 02:10:43;;;;;;;;;;;;;;;19.94;52.40;98335.03;1088562;54;19950;-87
2023/08/03 02:11:51;;;;;;;;;;;;;;;19.92;52.69;98353.47;1088203;47;20005;-86
2023/08/03 02:13:13;;;;;;;;;;;;;;;19.88;52.46;98350.44;1088425;54;19954;-85
2023/08/03 02:14:16;;;;;;;;;;;;;;;19.86;52.84;98359.84;1088289;47;19958;-85
2023/08/03 02:18:32;;;;;;;;;;;;;;;19.66;53.10;98360.31;1088265;47;19998;-86
2023/08/03 06:18:35;;;;;;;;;;;;;;;19.04;54.36;98601.03;1087773;46;19993;-82
2023/08/03 06:19:44;;;;;;;;;;;;;;;19.05;54.61;98600.00;1087849;47;19995;-85
2023/08/03 08:42:36;;;;;;;;;;;;;;;20.86;47.72;98721.09;1087184;47;19946;-83
2023/08/03 08:44:59;;;;;;;;;;;;;;;20.76;48.09;98706.53;1077740;47;20886;31
2023/08/03 08:46:00;;;;;;;;;;;;;;;20.54;48.36;98720.75;1088482;46;19960;-85
2023/08/03 09:03:06;;;;;;;;;;;;;;;20.56;50.34;98743.88;1088633;54;19958;-86
2023/08/03 09:04:06;;;;;;;;;;;;;;;20.99;49.15;98735.44;1088518;54;19943;-86
2023/08/03 09:05:28;;;;;;;;;;;;;;;21.00;49.48;98731.66;1088001;47;19943;-84
2023/08/03 09:06:29;;;;;;;;;;;;;;;20.79;50.00;98746.75;1090063;46;19985;-86
2023/08/03 09:07:33;;;;;;;;;;;;;;;20.77;50.42;98748.91;1088120;54;19966;-85
2023/08/03 09:08:46;;;;;;;;;;;;;;;20.77;50.54;98746.19;1087953;54;19943;-83
2023/08/03 09:09:50;;;;;;;;;;;;;;;20.94;50.11;98738.91;1087615;54;19949;-85
2023/08/03 09:10:55;;;;;;;;;;;;;;;20.89;50.12;98738.78;1087445;47;19943;-84
2023/08/03 09:11:58;;;;;;;;;;;;;;;20.92;50.44;98746.47;1087593;47;19943;-85
2023/08/03 09:12:59;;;;;;;;;;;;;;;21.07;49.83;98745.06;1104032;39;20652;-85
2023/08/03 09:14:06;;;;;;;;;;;;;;;21.12;49.64;98731.59;1087793;47;19950;-86
2023/08/03 09:15:47;;;;;;;;;;;;;;;21.18;49.90;98744.19;1087884;47;19943;-87
2023/08/03 09:18:33;;;;;;;;;;;;;;;21.12;50.02;98756.03;1087882;47;19950;-86
2023/08/03 09:19:37;;;;;;;;;;;;;;;21.12;49.99;98750.59;1087906;47;19942;-86
2023/08/03 09:20:47;;;;;;;;;;;;;;;20.87;50.56;98749.09;1087606;47;19943;-84
2023/08/03 09:28:37;;;;;;;;;;;;;;;20.57;51.97;98772.66;1087492;47;19951;-87
2023/08/03 09:29:47;;;;;;;;;;;;;;;20.50;52.16;98782.03;1088024;47;19965;-87
2023/08/03 09:32:10;;;;;;;;;;;;;;;20.47;52.54;98791.47;1087856;47;19943;-86
2023/08/03 09:33:14;;;;;;;;;;;;;;;20.35;52.64;98791.50;1089590;39;20653;-86
2023/08/03 09:34:24;;;;;;;;;;;;;;;20.16;53.17;98787.28;1088598;46;19927;-87
2023/08/03 09:35:29;;;;;;;;;;;;;;;20.24;53.02;98797.78;1088684;46;19926;-87
2023/08/03 12:39:55;;;;;;;;;;;;;;;22.15;48.55;98852.03;1086702;47;19943;-88
2023/08/03 12:40:56;;;;;;;;;;;;;;;22.35;48.29;98854.22;1086379;54;19950;-88
2023/08/03 12:41:59;;;;;;;;;;;;;;;22.37;47.88;98850.16;1086537;54;19956;-84
2023/08/03 12:43:00;;;;;;;;;;;;;;;22.37;48.40;98854.78;1086593;47;19950;-85
2023/08/03 12:44:00;;;;;;;;;;;;;;;22.16;48.47;98851.78;1086553;47;20361;-87
2023/08/03 12:45:04;;;;;;;;;;;;;;;22.37;48.50;98852.88;1086728;47;19957;-86
2023/08/03 12:46:04;;;;;;;;;;;;;;;22.35;48.23;98846.03;1086955;47;19962;-85
2023/08/03 12:47:08;;;;;;;;;;;;;;;22.36;48.22;98850.41;1088841;39;20874;-86
2023/08/03 12:48:09;;;;;;;;;;;;;;;22.28;48.24;98838.06;1086895;54;19990;-85
2023/08/03 12:49:12;;;;;;;;;;;;;;;22.05;48.30;98855.41;1086929;47;19942;-87
2023/08/03 12:50:13;;;;;;;;;;;;;;;21.99;48.25;98854.50;1086873;47;19942;-84
2023/08/03 12:51:13;;;;;;;;;;;;;;;22.08;47.93;98858.47;1086767;47;20029;-88
2023/08/03 12:52:17;;;;;;;;;;;;;;;22.06;47.65;98852.44;1086827;47;20325;-86
2023/08/03 12:53:18;;;;;;;;;;;;;;;21.97;48.54;98857.50;1086880;54;20001;-88
2023/08/03 12:54:22;;;;;;;;;;;;;;;22.05;48.02;98861.69;1086954;54;19962;-86
2023/08/03 12:55:25;;;;;;;;;;;;;;;22.04;47.83;98865.50;1087280;54;19943;-86
2023/08/03 12:56:26;;;;;;;;;;;;;;;21.95;48.56;98875.16;1086876;47;19958;-87
2023/08/03 12:57:29;;;;;;;;;;;;;;;22.03;48.53;98873.88;1086876;47;19971;-87
2023/08/03 12:58:30;;;;;;;;;;;;;;;22.22;48.21;98867.09;1086813;47;19943;-86
2023/08/03 12:59:33;;;;;;;;;;;;;;;22.24;48.20;98867.69;1086877;54;19975;-88
2023/08/03 13:00:34;;;;;;;;;;;;;;;22.12;47.90;98870.50;1087198;54;19950;-85
2023/08/03 13:01:37;;;;;;;;;;;;;;;22.07;47.71;98866.88;1087159;54;19995;-86
2023/08/03 13:02:38;;;;;;;;;;;;;;;22.10;47.88;98869.13;1087221;54;19947;-86
2023/08/03 13:03:39;;;;;;;;;;;;;;;21.99;48.45;98886.34;1087202;54;19943;-86
2023/08/03 13:04:42;;;;;;;;;;;;;;;22.05;48.09;98878.03;1087072;47;19942;-87
2023/08/03 13:05:43;;;;;;;;;;;;;;;22.09;48.07;98878.34;1086858;54;19945;-87
2023/08/03 13:06:47;;;;;;;;;;;;;;;22.02;48.34;98883.13;1086872;39;19991;-84
2023/08/03 13:07:47;;;;;;;;;;;;;;;22.07;48.19;98875.03;1087275;54;19966;-88
2023/08/03 13:08:51;;;;;;;;;;;;;;;22.18;48.03;98876.00;1087034;54;19943;-86
2023/08/03 13:09:51;;;;;;;;;;;;;;;22.11;48.62;98878.91;1087021;54;19943;-88
2023/08/03 13:10:57;;;;;;;;;;;;;;;22.15;48.62;98871.91;1086860;47;19943;-87
2023/08/03 13:11:58;;;;;;;;;;;;;;;22.13;48.44;98874.03;1086894;54;19943;-85
2023/08/03 13:13:01;;;;;;;;;;;;;;;22.08;48.62;98877.50;1086858;47;19954;-84
2023/08/03 13:14:02;;;;;;;;;;;;;;;22.16;48.20;98868.09;1086847;54;19987;-86
2023/08/03 13:15:06;;;;;;;;;;;;;;;22.19;48.23;98878.50;1086780;47;19942;-88
2023/08/03 13:16:07;;;;;;;;;;;;;;;22.25;47.66;98872.03;1086809;47;19942;-85
2023/08/03 13:17:10;;;;;;;;;;;;;;;22.13;47.95;98874.03;1086825;54;19942;-87
2023/08/03 13:18:11;;;;;;;;;;;;;;;22.32;47.82;98880.03;1088300;39;20172;-87
2023/08/03 13:19:14;;;;;;;;;;;;;;;22.10;47.55;98888.97;1086822;54;19954;-85
2023/08/03 13:20:15;;;;;;;;;;;;;;;22.02;47.31;98880.38;1087409;54;19954;-87
2023/08/03 13:21:19;;;;;;;;;;;;;;;21.98;47.86;98880.06;1087485;54;19949;-86
2023/08/03 13:22:19;;;;;;;;;;;;;;;21.92;47.37;98889.22;1087469;54;19943;-86
2023/08/03 13:23:23;;;;;;;;;;;;;;;22.09;47.40;98883.78;1087515;54;19966;-87
2023/08/03 13:24:24;;;;;;;;;;;;;;;22.07;47.05;98900.34;1087114;46;19973;-86
2023/08/03 13:25:28;;;;;;;;;;;;;;;21.93;47.49;98893.59;1087272;54;19942;-85
2023/08/03 13:26:31;;;;;;;;;;;;;;;21.82;47.66;98881.75;1087644;54;19943;-86
2023/08/03 13:27:35;;;;;;;;;;;;;;;21.78;48.03;98899.63;1087547;54;19943;-87
2023/08/03 13:28:35;;;;;;;;;;;;;;;21.89;47.69;98893.28;1087289;47;19943;-86
2023/08/03 13:29:39;;;;;;;;;;;;;;;21.99;47.83;98905.41;1087306;47;19950;-87
2023/08/03 13:30:39;;;;;;;;;;;;;;;21.87;48.41;98902.75;1087197;46;19954;-87
2023/08/03 13:31:43;;;;;;;;;;;;;;;21.77;48.64;98892.53;1087257;54;19958;-86
2023/08/03 13:32:44;;;;;;;;;;;;;;;22.00;48.54;98890.72;1087588;54;19942;-86
2023/08/03 13:33:47;;;;;;;;;;;;;;;22.11;48.44;98898.78;1087116;47;19942;-85
2023/08/03 13:34:48;;;;;;;;;;;;;;;21.88;48.86;98898.94;1088123;39;20217;-86
2023/08/03 13:35:51;;;;;;;;;;;;;;;21.81;48.74;98899.94;1087461;54;19942;-83
2023/08/03 13:36:52;;;;;;;;;;;;;;;21.94;48.84;98892.53;1087198;47;19943;-86
2023/08/03 13:37:53;;;;;;;;;;;;;;;21.93;49.04;98901.75;1087293;54;20015;-87
2023/08/03 13:38:56;;;;;;;;;;;;;;;22.01;48.61;98903.25;1087400;54;19950;-86
2023/08/03 13:39:57;;;;;;;;;;;;;;;21.98;48.53;98896.38;1087495;54;19942;-86
2023/08/03 13:41:00;;;;;;;;;;;;;;;22.05;48.45;98894.34;1087270;47;19949;-86
2023/08/03 13:42:04;;;;;;;;;;;;;;;22.07;48.43;98908.50;1087284;54;19999;-83
2023/08/03 13:43:07;;;;;;;;;;;;;;;21.86;48.92;98893.75;1087148;47;19943;-85
2023/08/03 13:44:08;;;;;;;;;;;;;;;21.83;48.50;98898.88;1088342;46;20086;-85
2023/08/03 13:45:12;;;;;;;;;;;;;;;22.04;48.50;98902.75;1087401;47;19946;-85
2023/08/03 13:46:12;;;;;;;;;;;;;;;22.06;48.55;98889.72;1087213;47;20343;-84
2023/08/03 13:47:16;;;;;;;;;;;;;;;22.12;48.11;98894.16;1087398;47;19942;-86
2023/08/03 13:48:16;;;;;;;;;;;;;;;22.19;48.46;98894.81;1087348;54;19943;-87
2023/08/03 13:49:20;;;;;;;;;;;;;;;22.38;48.24;98894.56;1087199;47;19942;-85
2023/08/03 13:50:21;;;;;;;;;;;;;;;22.32;48.21;98887.38;1087176;47;19949;-86
2023/08/03 13:51:24;;;;;;;;;;;;;;;22.24;48.00;98886.72;1087298;54;19943;-85
2023/08/03 13:52:25;;;;;;;;;;;;;;;22.33;47.83;98895.31;1087468;54;19950;-83
2023/08/03 13:53:29;;;;;;;;;;;;;;;22.41;47.77;98891.34;1087142;47;19954;-85
2023/08/03 13:54:29;;;;;;;;;;;;;;;22.56;47.66;98894.28;1087239;54;19975;-87
2023/08/03 13:55:30;;;;;;;;;;;;;;;22.43;47.99;98889.19;1087446;54;19943;-86
2023/08/03 13:56:33;;;;;;;;;;;;;;;22.49;47.62;98892.81;1087470;54;19942;-87
2023/08/03 13:57:37;;;;;;;;;;;;;;;22.52;47.79;98897.78;1087401;54;19950;-87
2023/08/03 13:58:40;;;;;;;;;;;;;;;22.46;47.41;98888.69;1087333;54;19943;-85
2023/08/03 13:59:41;;;;;;;;;;;;;;;22.49;47.44;98899.06;1087207;47;19942;-86
2023/08/03 14:00:44;;;;;;;;;;;;;;;22.49;47.64;98900.97;1087048;54;19942;-89
2023/08/03 14:01:45;;;;;;;;;;;;;;;22.47;47.89;98900.41;1087176;47;19946;-86
2023/08/03 14:02:48;;;;;;;;;;;;;;;22.46;47.88;98898.75;1087251;54;19942;-87
2023/08/03 14:03:49;;;;;;;;;;;;;;;22.44;47.78;98893.56;1087391;54;19943;-86
2023/08/03 14:04:52;;;;;;;;;;;;;;;22.55;47.59;98897.25;1087372;54;19946;-86
2023/08/03 14:05:53;;;;;;;;;;;;;;;22.60;47.47;98905.50;1087202;46;19942;-86
2023/08/03 14:06:54;;;;;;;;;;;;;;;22.58;47.58;98903.00;1087250;54;19943;-87
2023/08/03 14:07:57;;;;;;;;;;;;;;;22.81;47.34;98906.59;1087348;54;19943;-88
2023/08/03 14:08:58;;;;;;;;;;;;;;;22.82;47.11;98902.78;1087142;46;19942;-86
2023/08/03 14:10:01;;;;;;;;;;;;;;;22.82;47.19;98908.22;1087516;39;20724;-85
2023/08/03 14:11:05;;;;;;;;;;;;;;;22.84;47.38;98906.09;1087126;47;19948;-88
2023/08/03 14:12:06;;;;;;;;;;;;;;;22.83;47.26;98918.06;1087146;54;19994;-87
2023/08/03 14:13:12;;;;;;;;;;;;;;;22.95;46.96;98919.84;1087502;54;19949;-85
2023/08/03 14:14:13;;;;;;;;;;;;;;;22.88;46.84;98922.75;1087366;54;19965;-86
2023/08/03 14:15:17;;;;;;;;;;;;;;;22.91;46.90;98916.75;1087135;47;19942;-86
2023/08/03 14:16:17;;;;;;;;;;;;;;;22.85;46.65;98913.19;1087066;54;19942;-86
2023/08/03 14:17:21;;;;;;;;;;;;;;;22.90;47.08;98910.50;1087516;54;19953;-88
2023/08/03 14:18:22;;;;;;;;;;;;;;;23.01;47.05;98916.09;1087359;54;19943;-86
2023/08/03 14:19:25;;;;;;;;;;;;;;;22.97;47.23;98914.94;1087118;47;19942;-86
2023/08/03 14:20:26;;;;;;;;;;;;;;;22.84;47.32;98911.53;1087130;54;19995;-86
2023/08/03 14:21:29;;;;;;;;;;;;;;;22.89;47.07;98914.31;1087370;54;19949;-87
2023/08/03 14:22:30;;;;;;;;;;;;;;;22.67;46.99;98900.69;1087407;54;19950;-84
2023/08/03 14:23:33;;;;;;;;;;;;;;;22.51;47.43;98909.72;1087336;54;19943;-87
2023/08/03 14:24:34;;;;;;;;;;;;;;;22.61;46.85;98923.50;1087269;54;19943;-86
2023/08/03 14:25:37;;;;;;;;;;;;;;;22.68;46.73;98918.69;1087007;47;19966;-82
2023/08/03 14:26:38;;;;;;;;;;;;;;;22.76;46.47;98920.16;1086979;47;19943;-89
2023/08/03 14:27:41;;;;;;;;;;;;;;;22.83;45.94;98918.06;1086949;54;19942;-86
2023/08/03 14:28:45;;;;;;;;;;;;;;;22.98;45.62;98919.31;1087222;54;19949;-85
2023/08/03 14:29:48;;;;;;;;;;;;;;;22.95;45.15;98919.84;1086882;47;19954;-84
2023/08/03 14:30:49;;;;;;;;;;;;;;;22.87;45.43;98910.19;1086758;54;19943;-86
2023/08/03 14:31:50;;;;;;;;;;;;;;;22.89;45.31;98897.16;1087046;54;19943;-85
2023/08/03 14:32:53;;;;;;;;;;;;;;;22.93;45.17;98914.63;1087418;54;19949;-85
2023/08/03 14:33:54;;;;;;;;;;;;;;;22.72;45.24;98908.91;1087337;54;19967;-86
2023/08/03 14:34:55;;;;;;;;;;;;;;;22.67;45.37;98900.69;1087131;47;19967;-86
2023/08/03 14:35:58;;;;;;;;;;;;;;;22.77;45.45;98916.31;1087110;47;19990;-86
2023/08/03 14:37:01;;;;;;;;;;;;;;;22.74;45.71;98916.84;1087207;47;19963;-85
2023/08/03 14:38:02;;;;;;;;;;;;;;;22.72;45.89;98919.81;1087212;54;19943;-86
2023/08/03 14:39:06;;;;;;;;;;;;;;;22.66;45.60;98909.94;1087319;54;19966;-85
2023/08/03 14:40:08;;;;;;;;;;;;;;;22.64;46.01;98908.53;1088366;39;20248;-86
2023/08/03 14:41:14;;;;;;;;;;;;;;;22.77;45.70;98921.78;1087307;54;19949;-84
2023/08/03 14:42:15;;;;;;;;;;;;;;;22.68;45.99;98909.66;1087101;46;19942;-87
2023/08/03 14:43:18;;;;;;;;;;;;;;;22.68;46.53;98924.13;1087016;54;19951;-86
2023/08/03 14:44:22;;;;;;;;;;;;;;;22.83;45.91;98915.31;1087263;54;19945;-86
2023/08/03 14:45:28;;;;;;;;;;;;;;;22.88;45.94;98922.75;1087060;47;19945;-86
2023/08/03 14:46:29;;;;;;;;;;;;;;;22.78;46.54;98923.41;1087125;47;19943;-85
2023/08/03 14:47:33;;;;;;;;;;;;;;;22.66;46.40;98922.72;1087093;47;19938;-88
2023/08/03 14:48:33;;;;;;;;;;;;;;;22.92;46.31;98920.34;1086989;47;19942;-88
2023/08/03 14:49:37;;;;;;;;;;;;;;;22.76;46.49;98917.44;1087050;54;20021;-86
2023/08/03 14:50:37;;;;;;;;;;;;;;;22.70;46.92;98927.44;1087031;47;19954;-87
2023/08/03 14:51:42;;;;;;;;;;;;;;;22.80;46.64;98926.72;1087034;54;19943;-88
2023/08/03 14:52:42;;;;;;;;;;;;;;;22.73;46.70;98915.19;1086999;47;19943;-86
2023/08/03 14:53:46;;;;;;;;;;;;;;;22.75;46.89;98929.41;1087030;54;19943;-85
2023/08/03 14:54:49;;;;;;;;;;;;;;;22.62;47.25;98918.84;1087062;54;19975;-86
2023/08/03 14:55:59;;;;;;;;;;;;;;;22.67;46.76;98927.09;1087018;54;20006;-84
2023/08/03 14:57:01;;;;;;;;;;;;;;;23.00;46.36;98928.88;1087307;54;19966;-87
2023/08/03 14:58:04;;;;;;;;;;;;;;;23.17;46.39;98914.38;1087199;54;19942;-86
2023/08/03 14:59:05;;;;;;;;;;;;;;;23.41;45.81;98923.09;1087230;54;19942;-87
2023/08/03 15:00:12;;;;;;;;;;;;;;;23.67;45.17;98921.44;1087017;47;19942;-86
2023/08/03 15:01:13;;;;;;;;;;;;;;;24.08;44.43;98918.28;1087118;54;19942;-87
2023/08/03 15:02:16;;;;;;;;;;;;;;;24.16;44.29;98924.34;1087038;46;20093;-87
2023/08/03 15:03:18;;;;;;;;;;;;;;;24.11;44.07;98920.47;1086975;47;19942;-88
2023/08/03 15:04:22;;;;;;;;;;;;;;;24.22;43.83;98917.81;1087023;54;19942;-87
2023/08/03 15:05:22;;;;;;;;;;;;;;;24.25;43.77;98922.75;1087326;54;19942;-89
2023/08/03 15:06:26;;;;;;;;;;;;;;;24.20;44.28;98915.34;1087315;54;19942;-87
2023/08/03 15:07:27;;;;;;;;;;;;;;;24.11;43.99;98916.94;1087272;54;20030;-85
2023/08/03 15:08:27;;;;;;;;;;;;;;;24.30;43.76;98920.03;1086934;47;19966;-86
2023/08/03 15:09:31;;;;;;;;;;;;;;;24.15;44.15;98918.03;1086927;47;19991;-87
2023/08/03 15:10:32;;;;;;;;;;;;;;;24.44;43.87;98925.88;1086987;54;19942;-87
2023/08/03 15:11:35;;;;;;;;;;;;;;;24.67;43.18;98921.09;1087280;54;19942;-87
2023/08/03 15:12:36;;;;;;;;;;;;;;;24.83;42.99;98916.56;1087302;54;19966;-87
2023/08/03 15:13:39;;;;;;;;;;;;;;;24.64;42.58;98921.63;1086999;47;20327;-86
2023/08/03 15:14:40;;;;;;;;;;;;;;;24.39;43.08;98921.19;1086952;47;19974;-85
2023/08/03 15:15:46;;;;;;;;;;;;;;;24.25;43.38;98920.03;1091038;39;20196;-87
2023/08/03 15:16:47;;;;;;;;;;;;;;;24.05;43.26;98921.53;1086893;47;19943;-88
2023/08/03 15:17:50;;;;;;;;;;;;;;;23.83;43.55;98922.41;1086929;47;19942;-86
2023/08/03 15:18:51;;;;;;;;;;;;;;;24.07;43.60;98921.25;1086991;47;19943;-87
2023/08/03 15:19:54;;;;;;;;;;;;;;;23.92;43.77;98928.22;1086822;47;19964;-87
2023/08/03 15:20:55;;;;;;;;;;;;;;;23.99;43.80;98926.13;1086934;47;19951;-87
2023/08/03 15:21:58;;;;;;;;;;;;;;;23.87;43.66;98927.34;1086990;54;19942;-86
2023/08/03 15:22:59;;;;;;;;;;;;;;;24.16;43.01;98930.59;1087191;54;21077;-88
2023/08/03 15:24:02;;;;;;;;;;;;;;;24.30;42.50;98920.03;1087229;54;19970;-87
2023/08/03 15:25:03;;;;;;;;;;;;;;;24.25;42.43;98925.50;1087224;54;19950;-87
2023/08/03 15:26:04;;;;;;;;;;;;;;;24.36;42.50;98940.03;1086975;47;19954;-89
2023/08/03 15:27:08;;;;;;;;;;;;;;;24.18;42.77;98927.63;1086923;54;19942;-86
2023/08/03 15:28:08;;;;;;;;;;;;;;;24.56;42.38;98931.16;1086852;47;19938;-86
2023/08/03 15:29:12;;;;;;;;;;;;;;;24.60;42.49;98929.53;1087004;46;20867;-89
2023/08/03 15:30:12;;;;;;;;;;;;;;;24.70;42.21;98921.41;1086941;47;20356;-85
2023/08/03 15:31:17;;;;;;;;;;;;;;;24.89;41.91;98934.63;1086927;54;19943;-87
2023/08/03 15:32:20;;;;;;;;;;;;;;;24.79;41.79;98921.75;1087208;54;20018;-86
2023/08/03 15:33:21;;;;;;;;;;;;;;;24.80;41.83;98917.09;1086847;47;19942;-88
2023/08/03 15:34:25;;;;;;;;;;;;;;;25.06;41.54;98931.69;1086910;54;19969;-84
2023/08/03 15:35:26;;;;;;;;;;;;;;;24.93;41.06;98916.59;1086879;47;19994;-89
2023/08/03 15:36:35;;;;;;;;;;;;;;;25.08;40.74;98922.13;1086904;47;19949;-87
2023/08/03 15:37:36;;;;;;;;;;;;;;;24.83;40.86;98916.56;1088064;39;20962;-87
2023/08/03 15:38:40;;;;;;;;;;;;;;;24.81;41.10;98914.06;1087223;54;20078;-85
2023/08/03 15:39:41;;;;;;;;;;;;;;;24.97;40.86;98914.97;1086993;47;20301;-87
2023/08/03 15:40:42;;;;;;;;;;;;;;;24.36;42.19;98918.19;1087015;54;19949;-87
2023/08/03 15:41:46;;;;;;;;;;;;;;;24.40;42.00;98911.91;1087256;54;19949;-87
2023/08/03 15:42:47;;;;;;;;;;;;;;;24.42;41.91;98915.22;1087204;54;19950;-87
2023/08/03 15:43:51;;;;;;;;;;;;;;;24.49;41.63;98917.72;1086681;47;19938;-88
2023/08/03 15:44:51;;;;;;;;;;;;;;;24.55;41.66;98913.91;1087345;39;20772;-87
2023/08/03 15:45:52;;;;;;;;;;;;;;;24.66;41.43;98912.06;1086840;46;19994;-88
2023/08/03 15:46:58;;;;;;;;;;;;;;;24.78;41.36;98911.91;1087026;46;19943;-87
2023/08/03 15:47:59;;;;;;;;;;;;;;;24.80;41.77;98914.34;1086984;47;19943;-85
2023/08/03 15:49:02;;;;;;;;;;;;;;;24.84;41.48;98912.75;1087008;54;19942;-86
2023/08/03 15:50:03;;;;;;;;;;;;;;;24.64;41.57;98917.00;1087161;54;19942;-83
2023/08/03 15:51:07;;;;;;;;;;;;;;;24.72;41.77;98912.94;1087104;54;20302;-86
2023/08/03 15:52:08;;;;;;;;;;;;;;;24.60;41.82;98913.13;1087175;54;19942;-87
2023/08/03 15:53:09;;;;;;;;;;;;;;;24.63;41.71;98909.88;1087244;54;19973;-86
2023/08/03 15:54:12;;;;;;;;;;;;;;;24.28;42.74;98916.75;1088864;39;20445;-85
2023/08/03 15:55:13;;;;;;;;;;;;;;;24.11;42.96;98917.75;1086979;54;19947;-83
2023/08/03 15:56:16;;;;;;;;;;;;;;;24.11;42.81;98904.09;1089409;39;20245;-88
2023/08/03 15:57:17;;;;;;;;;;;;;;;23.92;43.55;98908.28;1088250;39;20905;-87
2023/08/03 15:58:20;;;;;;;;;;;;;;;24.07;43.29;98919.34;1086843;54;20033;-87
2023/08/03 15:59:23;;;;;;;;;;;;;;;23.74;43.94;98914.97;1087146;54;19965;-86
2023/08/03 16:00:27;;;;;;;;;;;;;;;23.77;43.85;98918.00;1087188;54;20011;-86
2023/08/03 16:01:28;;;;;;;;;;;;;;;23.65;44.04;98925.50;1086894;47;19950;-87
2023/08/03 16:02:34;;;;;;;;;;;;;;;23.84;43.80;98915.88;1086783;47;19975;-85
2023/08/03 16:03:35;;;;;;;;;;;;;;;23.68;44.35;98916.81;1086890;47;19950;-86
2023/08/03 16:04:38;;;;;;;;;;;;;;;23.80;44.22;98912.03;1086879;54;20319;-86
2023/08/03 16:05:39;;;;;;;;;;;;;;;23.98;43.54;98916.28;1089240;39;20626;-87
2023/08/03 16:06:42;;;;;;;;;;;;;;;24.08;43.47;98907.38;1087308;54;19956;-89
2023/08/03 16:07:43;;;;;;;;;;;;;;;23.92;43.90;98911.00;1089212;39;20558;-86
2023/08/03 16:08:47;;;;;;;;;;;;;;;24.12;43.35;98910.38;1087213;54;19946;-88
2023/08/03 16:09:48;;;;;;;;;;;;;;;24.12;43.69;98908.47;1086840;47;19942;-86
2023/08/03 16:10:59;;;;;;;;;;;;;;;23.88;44.11;98904.44;1086855;54;19943;-85
2023/08/03 16:12:00;;;;;;;;;;;;;;;23.88;44.03;98907.97;1086893;47;19942;-85
2023/08/03 16:13:05;;;;;;;;;;;;;;;23.92;44.16;98905.53;1086990;47;19942;-88
2023/08/03 16:14:06;;;;;;;;;;;;;;;23.64;44.56;98912.94;1086875;54;19966;-84
2023/08/03 16:15:10;;;;;;;;;;;;;;;23.74;44.47;98912.22;1087160;54;19967;-87
2023/08/03 16:16:11;;;;;;;;;;;;;;;23.79;44.34;98912.25;1087117;54;19998;-85
2023/08/03 16:17:15;;;;;;;;;;;;;;;23.55;45.13;98914.50;1087190;54;19942;-89
2023/08/03 16:18:18;;;;;;;;;;;;;;;23.64;44.63;98902.88;1087122;54;19966;-87
2023/08/03 16:19:22;;;;;;;;;;;;;;;23.56;45.02;98908.81;1086974;54;19950;-88
2023/08/03 16:20:22;;;;;;;;;;;;;;;23.35;45.26;98914.03;1086870;47;19966;-86
2023/08/03 16:21:26;;;;;;;;;;;;;;;23.45;45.43;98909.78;1086880;47;19943;-87
2023/08/03 16:22:27;;;;;;;;;;;;;;;23.49;45.16;98906.28;1086977;54;19954;-89
2023/08/03 16:23:31;;;;;;;;;;;;;;;23.41;45.31;98905.91;1087099;54;19942;-87
2023/08/03 16:24:31;;;;;;;;;;;;;;;23.43;45.08;98912.75;1087274;54;19943;-88
2023/08/03 16:25:35;;;;;;;;;;;;;;;23.42;45.29;98908.41;1087129;47;19942;-88
2023/08/03 16:26:36;;;;;;;;;;;;;;;23.29;45.58;98911.53;1086944;54;19967;-85
2023/08/03 16:27:36;;;;;;;;;;;;;;;23.20;45.88;98920.16;1087240;54;19954;-86
2023/08/03 16:28:40;;;;;;;;;;;;;;;23.32;45.85;98917.28;1086812;47;19943;-86
2023/08/03 16:29:40;;;;;;;;;;;;;;;23.40;45.35;98916.00;1086894;47;19967;-84
2023/08/03 16:30:44;;;;;;;;;;;;;;;23.33;45.53;98920.84;1088835;39;20257;-86
2023/08/03 16:31:45;;;;;;;;;;;;;;;23.14;45.81;98915.69;1086825;54;19943;-88
2023/08/03 16:32:48;;;;;;;;;;;;;;;23.29;45.84;98903.34;1086862;47;19950;-85
2023/08/03 16:33:52;;;;;;;;;;;;;;;23.26;45.93;98910.13;1088528;31;20757;-88
2023/08/03 16:34:55;;;;;;;;;;;;;;;23.20;45.90;98914.69;1087083;54;20026;-87
2023/08/03 16:35:57;;;;;;;;;;;;;;;23.24;45.95;98919.66;1086935;47;19942;-89
2023/08/03 16:37:00;;;;;;;;;;;;;;;23.09;46.35;98912.91;1086869;54;19946;-86
2023/08/03 16:38:01;;;;;;;;;;;;;;;23.09;46.41;98923.00;1086879;47;19965;-88
2023/08/03 16:39:05;;;;;;;;;;;;;;;23.13;46.08;98911.34;1086827;47;19942;-89
2023/08/03 16:40:07;;;;;;;;;;;;;;;23.24;46.35;98915.00;1086883;47;19943;-85
2023/08/03 16:41:10;;;;;;;;;;;;;;;23.29;46.05;98916.97;1086944;54;19987;-88
2023/08/03 16:42:11;;;;;;;;;;;;;;;23.31;45.94;98920.28;1086970;47;19942;-86
2023/08/03 16:43:15;;;;;;;;;;;;;;;23.34;45.87;98914.28;1086793;54;19943;-86
2023/08/03 16:44:15;;;;;;;;;;;;;;;23.15;46.16;98921.97;1086759;47;19949;-85
2023/08/03 16:45:19;;;;;;;;;;;;;;;23.21;46.46;98918.25;1086753;47;20710;-89
2023/08/03 16:46:20;;;;;;;;;;;;;;;23.40;45.89;98920.63;1086919;54;19950;-87
2023/08/03 16:47:23;;;;;;;;;;;;;;;23.44;46.11;98917.13;1087112;54;19943;-87
2023/08/03 16:48:24;;;;;;;;;;;;;;;23.47;45.85;98927.53;1086852;47;20324;-83
2023/08/03 16:49:30;;;;;;;;;;;;;;;23.20;45.85;98925.59;1086842;54;19977;-86
2023/08/03 16:50:31;;;;;;;;;;;;;;;23.23;45.71;98928.91;1086841;47;19950;-88
2023/08/03 16:51:34;;;;;;;;;;;;;;;23.23;45.71;98928.91;1086908;47;19949;-84
2023/08/03 16:52:35;;;;;;;;;;;;;;;23.19;45.00;98925.88;1086745;47;19943;-88
2023/08/03 16:53:39;;;;;;;;;;;;;;;23.09;45.52;98928.44;1086690;54;19954;-88
2023/08/03 16:54:40;;;;;;;;;;;;;;;22.89;45.75;98932.56;1087148;54;19942;-87
2023/08/03 16:55:43;;;;;;;;;;;;;;;22.78;45.79;98933.50;1087450;54;19942;-86
2023/08/03 16:56:44;;;;;;;;;;;;;;;22.73;46.35;98937.78;1087481;39;20240;-88
2023/08/03 16:57:47;;;;;;;;;;;;;;;22.81;45.95;98931.09;1087196;54;19949;-86
2023/08/03 16:58:48;;;;;;;;;;;;;;;22.65;46.54;98931.97;1087377;54;20335;-89
2023/08/03 16:59:51;;;;;;;;;;;;;;;22.68;46.96;98936.91;1087460;54;19943;-87
2023/08/03 17:00:52;;;;;;;;;;;;;;;22.54;47.29;98934.56;1087432;54;19950;-88
2023/08/03 17:01:53;;;;;;;;;;;;;;;22.42;47.83;98950.16;1087539;54;19966;-88
2023/08/03 17:02:56;;;;;;;;;;;;;;;22.48;47.86;98948.34;1087400;54;19942;-83
2023/08/03 17:03:57;;;;;;;;;;;;;;;22.55;47.69;98936.22;1087162;47;19943;-86
2023/08/03 17:05:03;;;;;;;;;;;;;;;22.52;47.56;98939.41;1087125;47;19938;-87
2023/08/03 17:06:04;;;;;;;;;;;;;;;22.34;48.28;98948.66;1087105;54;19961;-86
2023/08/03 17:07:05;;;;;;;;;;;;;;;22.41;48.07;98951.22;1087172;47;19949;-84
2023/08/03 17:08:08;;;;;;;;;;;;;;;22.39;48.10;98961.50;1087197;54;19943;-87
2023/08/03 17:09:09;;;;;;;;;;;;;;;22.44;47.99;98954.28;1087112;54;19943;-87
2023/08/03 17:10:13;;;;;;;;;;;;;;;22.31;48.19;98959.22;1087122;47;19943;-86
2023/08/03 17:11:13;;;;;;;;;;;;;;;22.24;48.59;98962.94;1087074;54;19943;-86
2023/08/03 17:12:17;;;;;;;;;;;;;;;22.28;48.96;98965.97;1087520;54;19943;-87
2023/08/03 17:13:18;;;;;;;;;;;;;;;22.17;49.20;98961.44;1087472;54;19943;-87
2023/08/03 17:14:25;;;;;;;;;;;;;;;22.28;48.79;98961.38;1087101;47;19964;-88
2023/08/03 17:15:26;;;;;;;;;;;;;;;22.25;48.70;98959.16;1087174;47;19974;-86
2023/08/03 17:16:29;;;;;;;;;;;;;;;22.25;48.91;98963.75;1087290;54;19942;-85
2023/08/03 17:17:30;;;;;;;;;;;;;;;22.35;48.96;98969.34;1087387;54;19943;-86
2023/08/03 17:18:34;;;;;;;;;;;;;;;22.42;48.84;98975.50;1087454;54;19966;-86
2023/08/03 17:19:35;;;;;;;;;;;;;;;22.44;48.66;98969.81;1087511;54;19942;-85
2023/08/03 17:20:41;;;;;;;;;;;;;;;22.35;49.22;98973.97;1087477;54;19949;-88
2023/08/03 17:21:41;;;;;;;;;;;;;;;22.33;49.33;98981.56;1087391;54;19943;-86
2023/08/03 17:22:45;;;;;;;;;;;;;;;22.21;49.44;98978.94;1087448;54;19990;-87
2023/08/03 17:23:45;;;;;;;;;;;;;;;22.14;49.68;98981.81;1087269;54;19942;-87
2023/08/03 17:24:49;;;;;;;;;;;;;;;22.22;49.62;98984.13;1087187;47;19967;-86
2023/08/03 17:25:50;;;;;;;;;;;;;;;22.22;49.62;98980.59;1087217;54;19966;-84